createdAt,value
2019-01-23T00:09:07.016Z,11.68
2019-01-23T00:09:07.039Z,11.14
2019-01-23T00:09:07.059Z,11.14
2019-01-23T00:09:07.093Z,11.14
2019-01-23T00:15:02.121Z,11.9
2019-01-23T00:20:57.032Z,10.97
2019-01-23T00:26:51.991Z,34.05
2019-01-23T00:32:47.019Z,13.73
2019-01-23T00:38:42.017Z,10.74
2019-01-23T00:44:37.022Z,10.87
2019-01-23T00:50:31.996Z,11.01
2019-01-23T00:56:27.020Z,10.91
2019-01-23T01:02:21.995Z,11.74
2019-01-23T01:08:17.000Z,16.69
2019-01-23T01:14:12.010Z,12.78
2019-01-23T01:20:07.035Z,10.93
2019-01-23T01:26:02.017Z,10.56
2019-01-23T01:31:57.019Z,12.34
2019-01-23T01:37:52.080Z,11.47
2019-01-23T01:43:47.024Z,10.27
2019-01-23T01:49:42.029Z,11.63
2019-01-23T01:55:37.017Z,13.37
2019-01-23T02:01:32.016Z,12.22
2019-01-23T02:07:27.000Z,12.45
2019-01-23T02:13:22.055Z,11.49
2019-01-23T02:19:17.076Z,11.15
2019-01-23T02:25:12.026Z,12.45
2019-01-23T02:31:07.038Z,10.48
2019-01-23T02:37:02.067Z,10.96
2019-01-23T02:42:57.050Z,11.16
2019-01-23T02:48:52.022Z,11.54
2019-01-23T03:12:32.081Z,11.13
2019-01-23T03:12:32.193Z,12.45
2019-01-23T03:12:32.209Z,12.45
2019-01-23T03:12:32.243Z,12.45
2019-01-23T03:18:27.052Z,12.12
2019-01-23T03:24:22.047Z,11.93
2019-01-23T03:30:17.038Z,11.5
2019-01-23T03:36:12.024Z,12.82
2019-01-23T03:42:07.046Z,10.93
2019-01-23T03:48:02.060Z,13
2019-01-23T03:53:57.046Z,12.26
2019-01-23T03:59:52.044Z,11.21
2019-01-23T04:05:47.095Z,12.61
2019-01-23T04:11:42.102Z,13.25
2019-01-23T04:17:37.064Z,12.39
2019-01-23T04:23:32.070Z,12.56
2019-01-23T04:29:27.086Z,12.23
2019-01-23T04:35:22.054Z,13.56
2019-01-23T04:41:17.050Z,12.36
2019-01-23T04:47:12.056Z,13.27
2019-01-23T04:53:07.087Z,12.51
2019-01-23T04:59:02.068Z,13.87
2019-01-23T05:04:57.049Z,13.5
2019-01-23T05:10:52.074Z,12.77
2019-01-23T05:16:47.217Z,12.82
2019-01-23T05:22:42.061Z,12.58
2019-01-23T05:28:37.070Z,13.37
2019-01-23T05:34:32.071Z,11.41
2019-01-23T05:40:27.154Z,13.11
2019-01-23T05:46:22.095Z,13.16
2019-01-23T06:10:02.106Z,14.02
2019-01-23T06:10:02.136Z,11.98
2019-01-23T06:10:02.152Z,11.98
2019-01-23T06:10:02.190Z,11.98
2019-01-23T06:15:57.078Z,13.58
2019-01-23T06:21:52.076Z,14.09
2019-01-23T06:27:47.073Z,12.57
2019-01-23T06:33:42.078Z,13.35
2019-01-23T06:39:37.066Z,12.27
2019-01-23T06:45:32.080Z,13.38
2019-01-23T06:51:27.084Z,12.08
2019-01-23T06:57:22.082Z,14.1
2019-01-23T07:03:17.077Z,12.7
2019-01-23T07:09:12.153Z,12.89
2019-01-23T07:15:07.090Z,13.66
2019-01-23T07:21:02.097Z,14.09
2019-01-23T07:26:57.105Z,14.13
2019-01-23T07:32:52.086Z,15.05
2019-01-23T07:38:47.131Z,13.85
2019-01-23T07:44:42.103Z,14.23
2019-01-23T07:50:37.160Z,13.68
2019-01-23T07:56:32.127Z,15.18
2019-01-23T08:02:27.090Z,14.82
2019-01-23T08:08:22.197Z,14.35
2019-01-23T08:14:17.139Z,16.3
2019-01-23T08:20:12.101Z,13.4
2019-01-23T08:26:07.103Z,14.99
2019-01-23T08:32:02.144Z,14.32
2019-01-23T08:37:57.115Z,16.49
2019-01-23T08:43:52.109Z,18.48
2019-01-23T08:49:47.128Z,17.78
2019-01-23T09:13:27.135Z,16.67
2019-01-23T09:13:27.192Z,73.56
2019-01-23T09:13:27.210Z,73.56
2019-01-23T09:13:27.239Z,73.56
2019-01-23T09:19:22.118Z,25.1
2019-01-23T09:25:17.110Z,18.41
2019-01-23T09:31:12.137Z,17.67
2019-01-23T09:37:07.143Z,18.42
2019-01-23T09:43:02.122Z,17.69
2019-01-23T09:48:57.113Z,16.88
2019-01-23T09:54:52.114Z,17.07
2019-01-23T10:00:47.221Z,17.88
2019-01-23T10:06:42.116Z,21.96
2019-01-23T10:12:37.138Z,16.44
2019-01-23T10:18:32.125Z,16.76
2019-01-23T10:24:27.159Z,16.57
2019-01-23T10:30:22.144Z,16.29
2019-01-23T10:36:17.157Z,17.55
2019-01-23T10:42:12.169Z,17.2
2019-01-23T10:48:07.134Z,21.14
2019-01-23T10:54:02.156Z,17.55
2019-01-23T10:59:57.120Z,18.04
2019-01-23T11:05:52.139Z,18.24
2019-01-23T11:11:47.207Z,17.27
2019-01-23T11:17:42.144Z,19.11
2019-01-23T11:23:37.168Z,18.8
2019-01-23T11:29:32.141Z,18.88
2019-01-23T11:35:27.149Z,20.19
2019-01-23T11:41:22.145Z,19.7
2019-01-23T11:47:17.155Z,21.36
2019-01-23T12:10:57.975Z,16.77
2019-01-23T12:10:57.976Z,16.77
2019-01-23T12:10:57.976Z,16.77
2019-01-23T12:10:57.976Z,18.99
2019-01-23T12:16:52.150Z,16.28
2019-01-23T12:22:47.223Z,17.84
2019-01-23T12:28:42.146Z,16.26
2019-01-23T12:34:37.175Z,17.53
2019-01-23T12:40:32.208Z,16.3
2019-01-23T12:46:27.172Z,13.99
2019-01-23T12:52:22.194Z,16.73
2019-01-23T12:58:17.192Z,18.07
2019-01-23T13:04:12.181Z,14.58
2019-01-23T13:10:07.168Z,13.55
2019-01-23T13:16:02.186Z,14.29
2019-01-23T13:21:57.180Z,15.72
2019-01-23T13:27:52.171Z,18.49
2019-01-23T13:33:47.185Z,16.81
2019-01-23T13:39:42.201Z,13.13
2019-01-23T13:45:37.256Z,22.73
2019-01-23T13:51:32.171Z,15.2
2019-01-23T13:57:27.159Z,13.49
2019-01-23T14:03:22.217Z,15.59
2019-01-23T14:09:17.218Z,17.41
2019-01-23T14:15:12.193Z,16.5
2019-01-23T14:21:07.178Z,15.07
2019-01-23T14:27:02.254Z,16.67
2019-01-23T14:32:57.212Z,14.95
2019-01-23T14:38:52.189Z,16.92
2019-01-23T14:44:47.186Z,14.71
2019-01-23T14:50:42.192Z,19.02
2019-01-23T15:14:22.224Z,19.17
2019-01-23T15:14:22.417Z,16.6
2019-01-23T15:14:22.439Z,16.6
2019-01-23T15:14:22.455Z,16.6
2019-01-23T15:20:17.195Z,17.24
2019-01-23T15:26:12.256Z,14.92
2019-01-23T15:32:07.243Z,19.64
2019-01-23T15:38:02.199Z,17.79
2019-01-23T15:43:57.208Z,17.54
2019-01-23T15:49:52.240Z,16.67
2019-01-23T15:55:47.202Z,18.47
2019-01-23T16:01:42.208Z,18.07
2019-01-23T16:07:37.203Z,19.23
2019-01-23T16:13:32.198Z,20.62
2019-01-23T16:19:27.229Z,20.26
2019-01-23T16:25:22.220Z,4.71
2019-01-23T16:31:17.198Z,2.84
2019-01-23T16:37:12.224Z,2.46
2019-01-23T16:43:07.227Z,2.52
2019-01-23T16:49:02.271Z,2.8
2019-01-23T16:54:57.228Z,3.06
2019-01-23T17:00:52.235Z,2.48
2019-01-23T17:06:47.223Z,2.81
2019-01-23T17:12:42.224Z,3.33
2019-01-23T17:18:37.227Z,10.93
2019-01-23T17:24:32.247Z,5.77
2019-01-23T17:30:27.225Z,5.86
2019-01-23T17:36:22.275Z,3.2
2019-01-23T17:42:17.251Z,2.72
2019-01-23T17:48:12.266Z,7.19
2019-01-23T18:11:52.273Z,3.49
2019-01-23T18:11:52.338Z,5.77
2019-01-23T18:11:52.354Z,5.77
2019-01-23T18:11:52.380Z,5.77
2019-01-23T18:17:47.257Z,4.1
2019-01-23T18:23:42.261Z,3.8
2019-01-23T18:29:37.225Z,2.91
2019-01-23T18:35:32.298Z,2.85
2019-01-23T18:41:27.288Z,4.03
2019-01-23T18:47:22.246Z,3.47
2019-01-23T18:53:17.252Z,4.42
2019-01-23T18:59:12.273Z,12.53
2019-01-23T19:05:07.282Z,2.98
2019-01-23T19:11:02.270Z,1.76
2019-01-23T19:16:57.274Z,2.3
2019-01-23T19:22:52.245Z,7.52
2019-01-23T19:28:47.237Z,4.3
2019-01-23T19:34:42.293Z,4.17
2019-01-23T19:40:37.297Z,2.77
2019-01-23T19:46:32.283Z,6.23
2019-01-23T19:52:27.258Z,2.23
2019-01-23T19:58:22.265Z,2.05
2019-01-23T20:04:17.281Z,9.42
2019-01-23T20:10:14.290Z,1.45
2019-01-23T20:16:07.262Z,2.3
2019-01-23T20:22:02.290Z,3.84
2019-01-23T20:27:57.284Z,2.37
2019-01-23T20:33:52.281Z,5.71
2019-01-23T20:39:47.311Z,5.34
2019-01-23T20:45:42.303Z,4.26
2019-01-23T20:51:37.311Z,3.73
2019-01-23T21:15:17.325Z,2.94
2019-01-23T21:15:17.415Z,1.97
2019-01-23T21:15:17.415Z,1.97
2019-01-23T21:15:17.464Z,1.97
2019-01-23T21:21:12.266Z,2.63
2019-01-23T21:27:07.333Z,1.88
2019-01-23T21:33:02.311Z,1.53
2019-01-23T21:38:57.295Z,1.91
2019-01-23T21:44:52.277Z,1.63
2019-01-23T21:50:47.327Z,0.72
2019-01-23T21:56:42.291Z,1.03
2019-01-23T22:02:37.303Z,1.08
2019-01-23T22:08:32.300Z,0.86
2019-01-23T22:14:27.307Z,0.96
2019-01-23T22:20:22.328Z,1.1
2019-01-23T22:26:17.280Z,1.22
2019-01-23T22:32:12.322Z,0.99
2019-01-23T22:38:07.293Z,1.3
2019-01-23T22:44:02.285Z,1.26
2019-01-23T22:49:57.364Z,0.81
2019-01-23T22:55:52.302Z,0.64
2019-01-23T23:01:47.299Z,0.68
2019-01-23T23:07:42.303Z,0.64
2019-01-23T23:13:37.391Z,0.58
2019-01-23T23:19:32.321Z,0.54
2019-01-23T23:25:27.316Z,0.69
2019-01-23T23:31:22.362Z,0.62
2019-01-23T23:37:17.361Z,0.73
2019-01-23T23:43:12.352Z,0.68
2019-01-23T23:49:07.328Z,0.59
